sensor_id;sensor_type;location;lat;lon;timestamp;P1;durP1;ratioP1;P2;durP2;ratioP2
48552;SDS011;34335;51.566;6.994;2022-09-21T00:01:57;4.35;;;1.98;;
48552;SDS011;34335;51.566;6.994;2022-09-21T00:04:22;3.70;;;1.70;;
48552;SDS011;34335;51.566;6.994;2022-09-21T00:06:47;3.75;;;1.73;;
48552;SDS011;34335;51.566;6.994;2022-09-21T00:09:13;5.22;;;2.30;;
48552;SDS011;34335;51.566;6.994;2022-09-21T00:11:38;3.05;;;1.77;;
48552;SDS011;34335;51.566;6.994;2022-09-21T00:14:08;4.43;;;1.77;;
48552;SDS011;34335;51.566;6.994;2022-09-21T00:16:36;3.97;;;1.95;;
48552;SDS011;34335;51.566;6.994;2022-09-21T00:19:03;4.93;;;2.30;;
48552;SDS011;34335;51.566;6.994;2022-09-21T00:21:30;2.65;;;1.33;;
48552;SDS011;34335;51.566;6.994;2022-09-21T00:23:57;3.80;;;2.38;;
48552;SDS011;34335;51.566;6.994;2022-09-21T00:26:23;5.32;;;2.17;;
48552;SDS011;34335;51.566;6.994;2022-09-21T00:28:53;5.75;;;1.75;;
48552;SDS011;34335;51.566;6.994;2022-09-21T00:31:19;5.32;;;2.10;;
48552;SDS011;34335;51.566;6.994;2022-09-21T00:33:45;4.93;;;2.05;;
48552;SDS011;34335;51.566;6.994;2022-09-21T00:36:12;3.10;;;2.20;;
48552;SDS011;34335;51.566;6.994;2022-09-21T00:38:39;3.53;;;2.00;;
48552;SDS011;34335;51.566;6.994;2022-09-21T00:41:05;3.63;;;1.65;;
48552;SDS011;34335;51.566;6.994;2022-09-21T00:43:32;7.80;;;2.35;;
48552;SDS011;34335;51.566;6.994;2022-09-21T00:46:06;4.15;;;2.38;;
48552;SDS011;34335;51.566;6.994;2022-09-21T00:48:39;3.58;;;1.55;;
48552;SDS011;34335;51.566;6.994;2022-09-21T00:51:05;7.68;;;2.42;;
48552;SDS011;34335;51.566;6.994;2022-09-21T00:53:32;4.65;;;1.85;;
48552;SDS011;34335;51.566;6.994;2022-09-21T00:55:59;5.18;;;2.08;;
48552;SDS011;34335;51.566;6.994;2022-09-21T00:58:30;4.45;;;2.17;;
48552;SDS011;34335;51.566;6.994;2022-09-21T01:00:59;3.35;;;1.90;;
48552;SDS011;34335;51.566;6.994;2022-09-21T01:03:25;4.13;;;1.98;;
48552;SDS011;34335;51.566;6.994;2022-09-21T01:05:53;5.10;;;2.28;;
48552;SDS011;34335;51.566;6.994;2022-09-21T01:08:18;2.95;;;1.70;;
48552;SDS011;34335;51.566;6.994;2022-09-21T01:10:48;3.70;;;1.83;;
48552;SDS011;34335;51.566;6.994;2022-09-21T01:16:37;3.22;;;1.77;;
48552;SDS011;34335;51.566;6.994;2022-09-21T01:21:54;3.83;;;2.08;;
48552;SDS011;34335;51.566;6.994;2022-09-21T01:27:16;4.50;;;1.77;;
48552;SDS011;34335;51.566;6.994;2022-09-21T01:32:42;4.32;;;1.83;;
48552;SDS011;34335;51.566;6.994;2022-09-21T01:35:12;4.13;;;1.73;;
48552;SDS011;34335;51.566;6.994;2022-09-21T01:37:44;9.57;;;2.25;;
48552;SDS011;34335;51.566;6.994;2022-09-21T01:40:19;2.60;;;1.63;;
48552;SDS011;34335;51.566;6.994;2022-09-21T01:42:49;3.13;;;1.75;;
48552;SDS011;34335;51.566;6.994;2022-09-21T01:45:17;3.63;;;1.77;;
48552;SDS011;34335;51.566;6.994;2022-09-21T01:47:46;3.40;;;1.50;;
48552;SDS011;34335;51.566;6.994;2022-09-21T01:50:13;4.13;;;1.45;;
48552;SDS011;34335;51.566;6.994;2022-09-21T01:52:45;2.78;;;1.60;;
48552;SDS011;34335;51.566;6.994;2022-09-21T01:55:24;4.15;;;1.90;;
48552;SDS011;34335;51.566;6.994;2022-09-21T01:57:59;4.05;;;1.95;;
48552;SDS011;34335;51.566;6.994;2022-09-21T02:00:29;2.50;;;1.30;;
48552;SDS011;34335;51.566;6.994;2022-09-21T02:02:59;3.53;;;2.08;;
48552;SDS011;34335;51.566;6.994;2022-09-21T02:05:32;4.78;;;2.20;;
48552;SDS011;34335;51.566;6.994;2022-09-21T02:07:58;2.65;;;1.65;;
48552;SDS011;34335;51.566;6.994;2022-09-21T02:10:30;2.40;;;1.23;;
48552;SDS011;34335;51.566;6.994;2022-09-21T02:13:00;3.83;;;1.40;;
48552;SDS011;34335;51.566;6.994;2022-09-21T02:18:42;3.47;;;1.50;;
48552;SDS011;34335;51.566;6.994;2022-09-21T02:21:22;3.45;;;1.52;;
48552;SDS011;34335;51.566;6.994;2022-09-21T02:27:05;3.75;;;1.08;;
48552;SDS011;34335;51.566;6.994;2022-09-21T02:37:56;5.38;;;2.25;;
48552;SDS011;34335;51.566;6.994;2022-09-21T02:40:34;4.53;;;1.80;;
48552;SDS011;34335;51.566;6.994;2022-09-21T02:43:23;3.50;;;1.75;;
48552;SDS011;34335;51.566;6.994;2022-09-21T02:45:55;2.40;;;1.30;;
48552;SDS011;34335;51.566;6.994;2022-09-21T02:48:32;4.07;;;1.60;;
48552;SDS011;34335;51.566;6.994;2022-09-21T02:51:03;3.08;;;1.40;;
48552;SDS011;34335;51.566;6.994;2022-09-21T02:53:33;4.15;;;1.63;;
48552;SDS011;34335;51.566;6.994;2022-09-21T02:56:01;5.10;;;2.03;;
48552;SDS011;34335;51.566;6.994;2022-09-21T02:58:31;4.35;;;1.80;;
48552;SDS011;34335;51.566;6.994;2022-09-21T03:01:00;5.20;;;1.58;;
48552;SDS011;34335;51.566;6.994;2022-09-21T03:03:26;2.50;;;1.38;;
48552;SDS011;34335;51.566;6.994;2022-09-21T03:05:52;3.33;;;1.80;;
48552;SDS011;34335;51.566;6.994;2022-09-21T03:08:19;5.28;;;1.55;;
48552;SDS011;34335;51.566;6.994;2022-09-21T03:10:45;4.22;;;1.65;;
48552;SDS011;34335;51.566;6.994;2022-09-21T03:13:14;4.22;;;1.70;;
48552;SDS011;34335;51.566;6.994;2022-09-21T03:15:39;1.93;;;1.20;;
48552;SDS011;34335;51.566;6.994;2022-09-21T03:18:05;4.88;;;2.03;;
48552;SDS011;34335;51.566;6.994;2022-09-21T03:20:36;2.97;;;1.75;;
48552;SDS011;34335;51.566;6.994;2022-09-21T03:23:02;4.40;;;2.00;;
48552;SDS011;34335;51.566;6.994;2022-09-21T03:25:28;5.20;;;1.90;;
48552;SDS011;34335;51.566;6.994;2022-09-21T03:27:54;4.25;;;2.20;;
48552;SDS011;34335;51.566;6.994;2022-09-21T03:30:20;4.18;;;1.73;;
48552;SDS011;34335;51.566;6.994;2022-09-21T03:32:50;4.38;;;2.00;;
48552;SDS011;34335;51.566;6.994;2022-09-21T03:35:19;5.50;;;2.03;;
48552;SDS011;34335;51.566;6.994;2022-09-21T03:37:46;3.08;;;1.67;;
48552;SDS011;34335;51.566;6.994;2022-09-21T03:40:13;3.30;;;1.50;;
48552;SDS011;34335;51.566;6.994;2022-09-21T03:42:39;3.03;;;1.77;;
48552;SDS011;34335;51.566;6.994;2022-09-21T03:45:05;5.53;;;2.55;;
48552;SDS011;34335;51.566;6.994;2022-09-21T03:47:31;2.47;;;1.35;;
48552;SDS011;34335;51.566;6.994;2022-09-21T03:49:56;3.85;;;1.70;;
48552;SDS011;34335;51.566;6.994;2022-09-21T03:52:21;3.27;;;1.73;;
48552;SDS011;34335;51.566;6.994;2022-09-21T03:54:47;3.25;;;1.65;;
48552;SDS011;34335;51.566;6.994;2022-09-21T03:57:12;2.63;;;1.38;;
48552;SDS011;34335;51.566;6.994;2022-09-21T03:59:37;2.63;;;1.67;;
48552;SDS011;34335;51.566;6.994;2022-09-21T04:02:03;4.07;;;1.58;;
48552;SDS011;34335;51.566;6.994;2022-09-21T04:04:28;3.42;;;1.92;;
48552;SDS011;34335;51.566;6.994;2022-09-21T04:06:53;3.07;;;1.37;;
48552;SDS011;34335;51.566;6.994;2022-09-21T04:09:18;3.30;;;1.70;;
48552;SDS011;34335;51.566;6.994;2022-09-21T04:11:44;2.00;;;1.33;;
48552;SDS011;34335;51.566;6.994;2022-09-21T04:14:10;2.80;;;1.42;;
48552;SDS011;34335;51.566;6.994;2022-09-21T04:16:36;4.15;;;1.90;;
48552;SDS011;34335;51.566;6.994;2022-09-21T04:19:02;4.07;;;1.75;;
48552;SDS011;34335;51.566;6.994;2022-09-21T04:21:27;3.17;;;1.55;;
48552;SDS011;34335;51.566;6.994;2022-09-21T04:23:52;5.70;;;1.85;;
48552;SDS011;34335;51.566;6.994;2022-09-21T04:26:25;3.47;;;2.17;;
48552;SDS011;34335;51.566;6.994;2022-09-21T04:28:53;2.95;;;1.48;;
48552;SDS011;34335;51.566;6.994;2022-09-21T04:31:19;2.60;;;1.48;;
48552;SDS011;34335;51.566;6.994;2022-09-21T04:33:48;2.28;;;1.02;;
48552;SDS011;34335;51.566;6.994;2022-09-21T04:36:15;3.42;;;1.40;;
48552;SDS011;34335;51.566;6.994;2022-09-21T04:38:44;2.25;;;1.15;;
48552;SDS011;34335;51.566;6.994;2022-09-21T04:41:09;2.95;;;1.60;;
48552;SDS011;34335;51.566;6.994;2022-09-21T04:43:35;4.15;;;1.65;;
48552;SDS011;34335;51.566;6.994;2022-09-21T04:46:05;5.60;;;1.90;;
48552;SDS011;34335;51.566;6.994;2022-09-21T04:48:34;3.60;;;1.80;;
48552;SDS011;34335;51.566;6.994;2022-09-21T04:51:00;3.40;;;1.70;;
48552;SDS011;34335;51.566;6.994;2022-09-21T04:53:25;4.50;;;1.98;;
48552;SDS011;34335;51.566;6.994;2022-09-21T04:55:51;4.63;;;1.27;;
48552;SDS011;34335;51.566;6.994;2022-09-21T04:58:16;14.13;;;1.95;;
48552;SDS011;34335;51.566;6.994;2022-09-21T05:00:41;3.40;;;2.07;;
48552;SDS011;34335;51.566;6.994;2022-09-21T05:03:07;4.25;;;1.55;;
48552;SDS011;34335;51.566;6.994;2022-09-21T05:05:32;2.70;;;1.45;;
48552;SDS011;34335;51.566;6.994;2022-09-21T05:07:58;3.25;;;1.75;;
48552;SDS011;34335;51.566;6.994;2022-09-21T05:10:23;3.53;;;1.70;;
48552;SDS011;34335;51.566;6.994;2022-09-21T05:12:49;3.33;;;1.60;;
48552;SDS011;34335;51.566;6.994;2022-09-21T05:15:15;3.22;;;1.50;;
48552;SDS011;34335;51.566;6.994;2022-09-21T05:17:42;3.15;;;1.50;;
48552;SDS011;34335;51.566;6.994;2022-09-21T05:20:08;2.83;;;1.50;;
48552;SDS011;34335;51.566;6.994;2022-09-21T05:22:34;4.15;;;2.03;;
48552;SDS011;34335;51.566;6.994;2022-09-21T05:24:59;4.00;;;1.63;;
48552;SDS011;34335;51.566;6.994;2022-09-21T05:27:25;5.53;;;1.50;;
48552;SDS011;34335;51.566;6.994;2022-09-21T05:29:50;2.38;;;1.48;;
48552;SDS011;34335;51.566;6.994;2022-09-21T05:32:22;5.25;;;1.85;;
48552;SDS011;34335;51.566;6.994;2022-09-21T05:40:37;3.53;;;1.63;;
48552;SDS011;34335;51.566;6.994;2022-09-21T05:43:03;6.50;;;1.27;;
48552;SDS011;34335;51.566;6.994;2022-09-21T05:45:29;3.90;;;1.25;;
48552;SDS011;34335;51.566;6.994;2022-09-21T05:48:03;2.97;;;1.52;;
48552;SDS011;34335;51.566;6.994;2022-09-21T05:50:39;6.85;;;1.92;;
48552;SDS011;34335;51.566;6.994;2022-09-21T05:55:50;4.82;;;1.85;;
48552;SDS011;34335;51.566;6.994;2022-09-21T06:04:18;8.02;;;2.95;;
48552;SDS011;34335;51.566;6.994;2022-09-21T06:06:43;8.05;;;4.10;;
48552;SDS011;34335;51.566;6.994;2022-09-21T06:09:09;9.60;;;4.82;;
48552;SDS011;34335;51.566;6.994;2022-09-21T06:11:34;7.82;;;5.18;;
48552;SDS011;34335;51.566;6.994;2022-09-21T06:14:00;13.20;;;5.57;;
48552;SDS011;34335;51.566;6.994;2022-09-21T06:16:27;11.63;;;4.50;;
48552;SDS011;34335;51.566;6.994;2022-09-21T06:21:26;6.10;;;3.00;;
48552;SDS011;34335;51.566;6.994;2022-09-21T06:23:51;6.07;;;2.63;;
48552;SDS011;34335;51.566;6.994;2022-09-21T06:26:16;5.30;;;2.73;;
48552;SDS011;34335;51.566;6.994;2022-09-21T06:28:42;6.03;;;2.47;;
48552;SDS011;34335;51.566;6.994;2022-09-21T06:31:07;5.77;;;2.03;;
48552;SDS011;34335;51.566;6.994;2022-09-21T06:33:32;4.57;;;2.40;;
48552;SDS011;34335;51.566;6.994;2022-09-21T06:35:59;5.20;;;2.42;;
48552;SDS011;34335;51.566;6.994;2022-09-21T06:38:25;4.53;;;2.17;;
48552;SDS011;34335;51.566;6.994;2022-09-21T06:40:52;5.90;;;2.70;;
48552;SDS011;34335;51.566;6.994;2022-09-21T06:43:18;5.60;;;1.98;;
48552;SDS011;34335;51.566;6.994;2022-09-21T06:45:51;3.72;;;1.95;;
48552;SDS011;34335;51.566;6.994;2022-09-21T06:48:18;6.80;;;2.65;;
48552;SDS011;34335;51.566;6.994;2022-09-21T06:50:43;4.57;;;2.47;;
48552;SDS011;34335;51.566;6.994;2022-09-21T06:53:08;6.20;;;2.40;;
48552;SDS011;34335;51.566;6.994;2022-09-21T06:55:33;4.13;;;2.10;;
48552;SDS011;34335;51.566;6.994;2022-09-21T06:58:02;3.20;;;1.98;;
48552;SDS011;34335;51.566;6.994;2022-09-21T07:00:29;5.03;;;2.08;;
48552;SDS011;34335;51.566;6.994;2022-09-21T07:02:55;5.03;;;2.63;;
48552;SDS011;34335;51.566;6.994;2022-09-21T07:05:20;2.80;;;1.50;;
48552;SDS011;34335;51.566;6.994;2022-09-21T07:07:45;11.40;;;2.58;;
48552;SDS011;34335;51.566;6.994;2022-09-21T07:10:11;4.90;;;2.45;;
48552;SDS011;34335;51.566;6.994;2022-09-21T07:12:36;4.32;;;2.28;;
48552;SDS011;34335;51.566;6.994;2022-09-21T07:15:02;5.35;;;2.40;;
48552;SDS011;34335;51.566;6.994;2022-09-21T07:17:35;6.47;;;2.80;;
48552;SDS011;34335;51.566;6.994;2022-09-21T07:20:02;7.00;;;2.20;;
48552;SDS011;34335;51.566;6.994;2022-09-21T07:22:28;3.88;;;1.88;;
48552;SDS011;34335;51.566;6.994;2022-09-21T07:24:54;5.68;;;2.60;;
48552;SDS011;34335;51.566;6.994;2022-09-21T07:27:20;5.97;;;3.05;;
48552;SDS011;34335;51.566;6.994;2022-09-21T07:29:45;7.70;;;3.33;;
48552;SDS011;34335;51.566;6.994;2022-09-21T07:32:11;7.30;;;3.38;;
48552;SDS011;34335;51.566;6.994;2022-09-21T07:34:37;5.63;;;2.50;;
48552;SDS011;34335;51.566;6.994;2022-09-21T07:37:03;5.55;;;3.05;;
48552;SDS011;34335;51.566;6.994;2022-09-21T07:39:28;6.07;;;3.15;;
48552;SDS011;34335;51.566;6.994;2022-09-21T07:41:54;5.80;;;3.70;;
48552;SDS011;34335;51.566;6.994;2022-09-21T07:44:19;8.57;;;3.67;;
48552;SDS011;34335;51.566;6.994;2022-09-21T07:46:47;10.13;;;4.25;;
48552;SDS011;34335;51.566;6.994;2022-09-21T07:49:13;6.85;;;2.85;;
48552;SDS011;34335;51.566;6.994;2022-09-21T07:51:38;5.30;;;2.50;;
48552;SDS011;34335;51.566;6.994;2022-09-21T07:54:03;5.27;;;2.63;;
48552;SDS011;34335;51.566;6.994;2022-09-21T07:56:29;6.15;;;3.45;;
48552;SDS011;34335;51.566;6.994;2022-09-21T07:58:54;7.93;;;3.20;;
48552;SDS011;34335;51.566;6.994;2022-09-21T08:01:36;5.95;;;3.05;;
48552;SDS011;34335;51.566;6.994;2022-09-21T08:04:03;4.97;;;2.65;;
48552;SDS011;34335;51.566;6.994;2022-09-21T08:06:30;6.03;;;2.63;;
48552;SDS011;34335;51.566;6.994;2022-09-21T08:08:57;4.30;;;2.47;;
48552;SDS011;34335;51.566;6.994;2022-09-21T08:11:26;4.32;;;2.65;;
48552;SDS011;34335;51.566;6.994;2022-09-21T08:13:55;7.15;;;2.67;;
48552;SDS011;34335;51.566;6.994;2022-09-21T08:16:23;4.25;;;2.85;;
48552;SDS011;34335;51.566;6.994;2022-09-21T08:18:49;6.18;;;3.05;;
48552;SDS011;34335;51.566;6.994;2022-09-21T08:21:15;4.88;;;2.20;;
48552;SDS011;34335;51.566;6.994;2022-09-21T08:23:41;8.27;;;3.35;;
48552;SDS011;34335;51.566;6.994;2022-09-21T08:26:07;6.65;;;3.65;;
48552;SDS011;34335;51.566;6.994;2022-09-21T08:28:37;4.80;;;2.13;;
48552;SDS011;34335;51.566;6.994;2022-09-21T08:31:05;8.80;;;3.13;;
48552;SDS011;34335;51.566;6.994;2022-09-21T08:33:34;8.73;;;3.78;;
48552;SDS011;34335;51.566;6.994;2022-09-21T08:36:00;5.32;;;2.85;;
48552;SDS011;34335;51.566;6.994;2022-09-21T08:38:26;5.82;;;2.83;;
48552;SDS011;34335;51.566;6.994;2022-09-21T08:40:57;6.95;;;2.97;;
48552;SDS011;34335;51.566;6.994;2022-09-21T08:43:33;6.40;;;3.08;;
48552;SDS011;34335;51.566;6.994;2022-09-21T08:46:03;6.32;;;3.03;;
48552;SDS011;34335;51.566;6.994;2022-09-21T08:48:32;4.07;;;2.10;;
48552;SDS011;34335;51.566;6.994;2022-09-21T08:51:04;10.95;;;2.75;;
48552;SDS011;34335;51.566;6.994;2022-09-21T08:53:33;5.60;;;2.90;;
48552;SDS011;34335;51.566;6.994;2022-09-21T08:56:05;7.90;;;2.95;;
48552;SDS011;34335;51.566;6.994;2022-09-21T08:58:30;5.35;;;2.78;;
48552;SDS011;34335;51.566;6.994;2022-09-21T09:03:57;3.78;;;2.13;;
48552;SDS011;34335;51.566;6.994;2022-09-21T09:07:06;2.13;;;1.20;;
48552;SDS011;34335;51.566;6.994;2022-09-21T09:09:56;5.18;;;1.35;;
48552;SDS011;34335;51.566;6.994;2022-09-21T09:17:26;1.33;;;0.77;;
48552;SDS011;34335;51.566;6.994;2022-09-21T09:20:21;2.20;;;1.10;;
48552;SDS011;34335;51.566;6.994;2022-09-21T09:25:45;3.78;;;1.42;;
48552;SDS011;34335;51.566;6.994;2022-09-21T09:31:10;3.30;;;0.90;;
48552;SDS011;34335;51.566;6.994;2022-09-21T09:36:10;0.93;;;0.60;;
48552;SDS011;34335;51.566;6.994;2022-09-21T09:38:38;1.73;;;1.00;;
48552;SDS011;34335;51.566;6.994;2022-09-21T09:43:55;2.83;;;1.05;;
48552;SDS011;34335;51.566;6.994;2022-09-21T09:51:42;0.73;;;0.50;;
48552;SDS011;34335;51.566;6.994;2022-09-21T09:54:12;3.65;;;1.20;;
48552;SDS011;34335;51.566;6.994;2022-09-21T09:56:39;5.78;;;1.35;;
48552;SDS011;34335;51.566;6.994;2022-09-21T09:59:08;6.15;;;1.10;;
48552;SDS011;34335;51.566;6.994;2022-09-21T10:01:42;2.45;;;0.90;;
48552;SDS011;34335;51.566;6.994;2022-09-21T10:04:13;1.83;;;0.95;;
48552;SDS011;34335;51.566;6.994;2022-09-21T10:06:41;4.03;;;1.35;;
48552;SDS011;34335;51.566;6.994;2022-09-21T10:09:18;2.35;;;1.10;;
48552;SDS011;34335;51.566;6.994;2022-09-21T10:11:50;0.95;;;0.60;;
48552;SDS011;34335;51.566;6.994;2022-09-21T10:14:18;1.00;;;0.60;;
48552;SDS011;34335;51.566;6.994;2022-09-21T10:16:47;2.65;;;0.70;;
48552;SDS011;34335;51.566;6.994;2022-09-21T10:19:21;3.95;;;0.90;;
48552;SDS011;34335;51.566;6.994;2022-09-21T10:21:51;3.45;;;0.60;;
48552;SDS011;34335;51.566;6.994;2022-09-21T10:24:28;1.60;;;0.85;;
48552;SDS011;34335;51.566;6.994;2022-09-21T10:29:40;5.28;;;0.85;;
48552;SDS011;34335;51.566;6.994;2022-09-21T10:34:37;3.20;;;0.98;;
48552;SDS011;34335;51.566;6.994;2022-09-21T10:40:00;1.38;;;0.70;;
48552;SDS011;34335;51.566;6.994;2022-09-21T10:42:27;0.93;;;0.60;;
48552;SDS011;34335;51.566;6.994;2022-09-21T10:47:47;2.65;;;0.82;;
48552;SDS011;34335;51.566;6.994;2022-09-21T10:50:23;1.20;;;0.73;;
48552;SDS011;34335;51.566;6.994;2022-09-21T10:52:54;1.00;;;0.55;;
48552;SDS011;34335;51.566;6.994;2022-09-21T10:55:22;4.07;;;1.73;;
48552;SDS011;34335;51.566;6.994;2022-09-21T10:57:49;4.18;;;2.03;;
48552;SDS011;34335;51.566;6.994;2022-09-21T11:00:25;10.77;;;7.32;;
48552;SDS011;34335;51.566;6.994;2022-09-21T11:05:58;4.75;;;2.55;;
48552;SDS011;34335;51.566;6.994;2022-09-21T11:08:36;2.70;;;1.35;;
48552;SDS011;34335;51.566;6.994;2022-09-21T11:17:08;1.23;;;0.70;;
48552;SDS011;34335;51.566;6.994;2022-09-21T11:19:53;1.63;;;0.65;;
48552;SDS011;34335;51.566;6.994;2022-09-21T11:25:17;1.52;;;0.80;;
48552;SDS011;34335;51.566;6.994;2022-09-21T11:27:53;1.33;;;0.68;;
48552;SDS011;34335;51.566;6.994;2022-09-21T11:30:26;0.88;;;0.45;;
48552;SDS011;34335;51.566;6.994;2022-09-21T11:33:10;2.58;;;0.55;;
48552;SDS011;34335;51.566;6.994;2022-09-21T11:36:09;1.35;;;0.60;;
48552;SDS011;34335;51.566;6.994;2022-09-21T11:38:47;1.65;;;0.40;;
48552;SDS011;34335;51.566;6.994;2022-09-21T11:44:32;2.83;;;0.60;;
48552;SDS011;34335;51.566;6.994;2022-09-21T11:47:10;1.10;;;0.50;;
48552;SDS011;34335;51.566;6.994;2022-09-21T11:49:44;0.85;;;0.40;;
48552;SDS011;34335;51.566;6.994;2022-09-21T11:55:20;2.53;;;0.73;;
48552;SDS011;34335;51.566;6.994;2022-09-21T11:58:00;1.35;;;0.63;;
48552;SDS011;34335;51.566;6.994;2022-09-21T12:00:42;0.98;;;0.50;;
48552;SDS011;34335;51.566;6.994;2022-09-21T12:08:54;2.33;;;0.73;;
48552;SDS011;34335;51.566;6.994;2022-09-21T12:11:49;1.25;;;0.50;;
48552;SDS011;34335;51.566;6.994;2022-09-21T12:14:47;1.15;;;0.70;;
48552;SDS011;34335;51.566;6.994;2022-09-21T12:17:23;0.60;;;0.40;;
48552;SDS011;34335;51.566;6.994;2022-09-21T12:20:12;1.80;;;0.55;;
48552;SDS011;34335;51.566;6.994;2022-09-21T12:22:44;1.55;;;0.60;;
48552;SDS011;34335;51.566;6.994;2022-09-21T12:25:21;1.63;;;1.08;;
48552;SDS011;34335;51.566;6.994;2022-09-21T12:27:58;1.13;;;0.60;;
48552;SDS011;34335;51.566;6.994;2022-09-21T12:30:25;0.95;;;0.55;;
48552;SDS011;34335;51.566;6.994;2022-09-21T12:33:00;1.60;;;0.47;;
48552;SDS011;34335;51.566;6.994;2022-09-21T12:35:39;0.60;;;0.45;;
48552;SDS011;34335;51.566;6.994;2022-09-21T12:40:51;1.95;;;0.63;;
48552;SDS011;34335;51.566;6.994;2022-09-21T12:46:12;1.80;;;0.80;;
48552;SDS011;34335;51.566;6.994;2022-09-21T12:48:42;1.67;;;0.80;;
48552;SDS011;34335;51.566;6.994;2022-09-21T12:51:24;1.15;;;0.60;;
48552;SDS011;34335;51.566;6.994;2022-09-21T12:53:54;1.00;;;0.50;;
48552;SDS011;34335;51.566;6.994;2022-09-21T13:10:19;0.77;;;0.60;;
48552;SDS011;34335;51.566;6.994;2022-09-21T13:13:01;1.52;;;0.50;;
48552;SDS011;34335;51.566;6.994;2022-09-21T13:15:29;0.88;;;0.60;;
48552;SDS011;34335;51.566;6.994;2022-09-21T13:18:00;0.77;;;0.50;;
48552;SDS011;34335;51.566;6.994;2022-09-21T13:20:32;0.35;;;0.30;;
48552;SDS011;34335;51.566;6.994;2022-09-21T13:23:00;0.63;;;0.43;;
48552;SDS011;34335;51.566;6.994;2022-09-21T13:25:27;0.50;;;0.40;;
48552;SDS011;34335;51.566;6.994;2022-09-21T13:49:01;0.57;;;0.40;;
48552;SDS011;34335;51.566;6.994;2022-09-21T13:54:30;0.90;;;0.50;;
48552;SDS011;34335;51.566;6.994;2022-09-21T13:59:46;0.80;;;0.43;;
48552;SDS011;34335;51.566;6.994;2022-09-21T14:02:21;0.30;;;0.30;;
48552;SDS011;34335;51.566;6.994;2022-09-21T14:04:59;4.35;;;0.60;;
48552;SDS011;34335;51.566;6.994;2022-09-21T14:07:30;4.55;;;0.50;;
48552;SDS011;34335;51.566;6.994;2022-09-21T14:09:58;0.43;;;0.40;;
48552;SDS011;34335;51.566;6.994;2022-09-21T14:12:31;0.80;;;0.40;;
48552;SDS011;34335;51.566;6.994;2022-09-21T14:17:43;1.48;;;0.60;;
48552;SDS011;34335;51.566;6.994;2022-09-21T14:20:30;0.82;;;0.40;;
48552;SDS011;34335;51.566;6.994;2022-09-21T14:25:56;1.85;;;0.32;;
48552;SDS011;34335;51.566;6.994;2022-09-21T14:28:40;1.25;;;0.50;;
48552;SDS011;34335;51.566;6.994;2022-09-21T14:31:16;1.27;;;0.40;;
48552;SDS011;34335;51.566;6.994;2022-09-21T14:33:47;0.77;;;0.43;;
48552;SDS011;34335;51.566;6.994;2022-09-21T14:36:18;0.50;;;0.50;;
48552;SDS011;34335;51.566;6.994;2022-09-21T14:39:06;3.25;;;0.40;;
48552;SDS011;34335;51.566;6.994;2022-09-21T14:41:41;1.30;;;0.50;;
48552;SDS011;34335;51.566;6.994;2022-09-21T14:44:20;1.38;;;0.38;;
48552;SDS011;34335;51.566;6.994;2022-09-21T14:46:59;0.80;;;0.50;;
48552;SDS011;34335;51.566;6.994;2022-09-21T14:52:33;3.67;;;0.50;;
48552;SDS011;34335;51.566;6.994;2022-09-21T15:00:36;0.43;;;0.40;;
48552;SDS011;34335;51.566;6.994;2022-09-21T15:06:03;1.60;;;0.40;;
48552;SDS011;34335;51.566;6.994;2022-09-21T15:12:21;1.20;;;0.57;;
48552;SDS011;34335;51.566;6.994;2022-09-21T15:14:58;0.93;;;0.53;;
48552;SDS011;34335;51.566;6.994;2022-09-21T15:17:55;0.43;;;0.40;;
48552;SDS011;34335;51.566;6.994;2022-09-21T15:20:24;0.73;;;0.47;;
48552;SDS011;34335;51.566;6.994;2022-09-21T15:22:54;1.48;;;0.52;;
48552;SDS011;34335;51.566;6.994;2022-09-21T15:25:20;0.73;;;0.50;;
48552;SDS011;34335;51.566;6.994;2022-09-21T15:27:48;2.75;;;0.82;;
48552;SDS011;34335;51.566;6.994;2022-09-21T15:30:22;0.77;;;0.50;;
48552;SDS011;34335;51.566;6.994;2022-09-21T15:32:54;0.88;;;0.50;;
48552;SDS011;34335;51.566;6.994;2022-09-21T15:37:57;1.40;;;0.40;;
48552;SDS011;34335;51.566;6.994;2022-09-21T15:43:04;0.80;;;0.45;;
48552;SDS011;34335;51.566;6.994;2022-09-21T15:45:55;2.30;;;0.45;;
48552;SDS011;34335;51.566;6.994;2022-09-21T15:48:25;3.25;;;0.60;;
48552;SDS011;34335;51.566;6.994;2022-09-21T15:51:00;0.57;;;0.35;;
48552;SDS011;34335;51.566;6.994;2022-09-21T15:53:38;1.00;;;0.52;;
48552;SDS011;34335;51.566;6.994;2022-09-21T15:56:16;1.40;;;0.45;;
48552;SDS011;34335;51.566;6.994;2022-09-21T15:58:44;1.17;;;0.57;;
48552;SDS011;34335;51.566;6.994;2022-09-21T16:01:14;2.90;;;0.60;;
48552;SDS011;34335;51.566;6.994;2022-09-21T16:03:45;1.40;;;0.40;;
48552;SDS011;34335;51.566;6.994;2022-09-21T16:09:25;0.50;;;0.30;;
48552;SDS011;34335;51.566;6.994;2022-09-21T16:11:48;1.10;;;0.50;;
48552;SDS011;34335;51.566;6.994;2022-09-21T16:14:14;0.90;;;0.47;;
48552;SDS011;34335;51.566;6.994;2022-09-21T16:19:40;1.50;;;0.40;;
48552;SDS011;34335;51.566;6.994;2022-09-21T16:22:37;1.17;;;0.40;;
48552;SDS011;34335;51.566;6.994;2022-09-21T16:28:43;0.98;;;0.60;;
48552;SDS011;34335;51.566;6.994;2022-09-21T16:30:50;1.55;;;0.35;;
48552;SDS011;34335;51.566;6.994;2022-09-21T16:39:07;0.73;;;0.52;;
48552;SDS011;34335;51.566;6.994;2022-09-21T16:41:37;1.42;;;0.57;;
48552;SDS011;34335;51.566;6.994;2022-09-21T16:44:10;1.00;;;0.60;;
48552;SDS011;34335;51.566;6.994;2022-09-21T16:46:40;2.67;;;0.90;;
48552;SDS011;34335;51.566;6.994;2022-09-21T16:49:09;1.63;;;0.50;;
48552;SDS011;34335;51.566;6.994;2022-09-21T16:51:40;1.48;;;0.70;;
48552;SDS011;34335;51.566;6.994;2022-09-21T16:54:06;1.53;;;0.80;;
48552;SDS011;34335;51.566;6.994;2022-09-21T16:56:32;2.35;;;0.90;;
48552;SDS011;34335;51.566;6.994;2022-09-21T16:58:58;1.73;;;0.80;;
48552;SDS011;34335;51.566;6.994;2022-09-21T17:01:27;1.30;;;0.60;;
48552;SDS011;34335;51.566;6.994;2022-09-21T17:03:54;3.10;;;1.08;;
48552;SDS011;34335;51.566;6.994;2022-09-21T17:06:20;1.08;;;0.60;;
48552;SDS011;34335;51.566;6.994;2022-09-21T17:08:46;2.95;;;1.02;;
48552;SDS011;34335;51.566;6.994;2022-09-21T17:11:13;1.30;;;0.73;;
48552;SDS011;34335;51.566;6.994;2022-09-21T17:13:46;1.38;;;0.80;;
48552;SDS011;34335;51.566;6.994;2022-09-21T17:16:15;2.42;;;1.20;;
48552;SDS011;34335;51.566;6.994;2022-09-21T17:18:43;3.55;;;0.73;;
48552;SDS011;34335;51.566;6.994;2022-09-21T17:21:11;2.28;;;0.95;;
48552;SDS011;34335;51.566;6.994;2022-09-21T17:23:37;2.30;;;1.00;;
48552;SDS011;34335;51.566;6.994;2022-09-21T17:26:03;2.55;;;1.00;;
48552;SDS011;34335;51.566;6.994;2022-09-21T17:28:41;4.15;;;1.08;;
48552;SDS011;34335;51.566;6.994;2022-09-21T17:31:11;6.38;;;0.98;;
48552;SDS011;34335;51.566;6.994;2022-09-21T17:33:37;3.88;;;1.15;;
48552;SDS011;34335;51.566;6.994;2022-09-21T17:36:03;1.77;;;1.00;;
48552;SDS011;34335;51.566;6.994;2022-09-21T17:38:32;2.67;;;1.42;;
48552;SDS011;34335;51.566;6.994;2022-09-21T17:40:59;2.38;;;1.02;;
48552;SDS011;34335;51.566;6.994;2022-09-21T17:46:21;1.92;;;0.90;;
48552;SDS011;34335;51.566;6.994;2022-09-21T17:48:52;3.22;;;1.17;;
48552;SDS011;34335;51.566;6.994;2022-09-21T17:51:18;2.10;;;1.30;;
48552;SDS011;34335;51.566;6.994;2022-09-21T17:54:03;5.50;;;1.02;;
48552;SDS011;34335;51.566;6.994;2022-09-21T17:56:35;3.08;;;1.30;;
48552;SDS011;34335;51.566;6.994;2022-09-21T17:59:20;3.00;;;1.30;;
48552;SDS011;34335;51.566;6.994;2022-09-21T18:01:50;2.88;;;1.30;;
48552;SDS011;34335;51.566;6.994;2022-09-21T18:04:16;3.50;;;1.45;;
48552;SDS011;34335;51.566;6.994;2022-09-21T18:06:43;5.78;;;1.80;;
48552;SDS011;34335;51.566;6.994;2022-09-21T18:09:08;3.17;;;1.42;;
48552;SDS011;34335;51.566;6.994;2022-09-21T18:11:40;4.93;;;1.48;;
48552;SDS011;34335;51.566;6.994;2022-09-21T18:14:23;4.63;;;1.85;;
48552;SDS011;34335;51.566;6.994;2022-09-21T18:16:57;5.60;;;1.67;;
48552;SDS011;34335;51.566;6.994;2022-09-21T18:24:46;4.22;;;1.73;;